createdAt,value
2023-01-29T00:02:14.800Z,23.45
2023-01-29T00:04:42.346Z,26.13
2023-01-29T00:07:09.548Z,20.83
2023-01-29T00:09:37.087Z,19.30
2023-01-29T00:12:04.417Z,23.70
2023-01-29T00:14:31.929Z,21.95
2023-01-29T00:16:59.203Z,24.17
2023-01-29T00:19:27.696Z,25.30
2023-01-29T00:21:55.042Z,35.90
2023-01-29T00:24:23.015Z,26.20
2023-01-29T00:26:50.481Z,29.88
2023-01-29T00:29:18.637Z,22.65
2023-01-29T00:31:46.386Z,27.40
2023-01-29T00:34:14.137Z,28.60
2023-01-29T00:36:41.477Z,26.98
2023-01-29T00:39:11.141Z,29.77
2023-01-29T00:41:57.603Z,22.88
2023-01-29T00:44:43.665Z,18.20
2023-01-29T00:47:29.698Z,25.73
2023-01-29T00:49:57.757Z,21.77
2023-01-29T00:52:25.384Z,34.38
2023-01-29T00:54:54.611Z,22.73
2023-01-29T00:57:22.885Z,18.10
2023-01-29T00:59:50.668Z,21.42
2023-01-29T01:02:36.536Z,20.33
2023-01-29T01:05:07.916Z,19.40
2023-01-29T01:07:35.196Z,19.33
2023-01-29T01:10:21.243Z,20.83
2023-01-29T01:12:51.881Z,27.70
2023-01-29T01:15:20.374Z,24.10
2023-01-29T01:17:49.017Z,23.30
2023-01-29T01:20:17.727Z,18.67
2023-01-29T01:22:45.180Z,18.88
2023-01-29T01:25:12.773Z,24.02
2023-01-29T01:27:41.455Z,29.02
2023-01-29T01:30:15.796Z,27.00
2023-01-29T01:32:43.511Z,30.13
2023-01-29T01:35:12.046Z,24.08
2023-01-29T01:37:39.297Z,27.02
2023-01-29T01:40:13.429Z,25.05
2023-01-29T01:42:40.886Z,22.52
2023-01-29T01:45:19.927Z,18.90
2023-01-29T01:48:00.819Z,15.63
2023-01-29T01:50:58.943Z,17.33
2023-01-29T01:53:39.769Z,25.65
2023-01-29T01:56:16.545Z,20.33
2023-01-29T01:58:54.381Z,20.08
2023-01-29T02:01:28.237Z,21.80
2023-01-29T02:04:39.768Z,21.05
2023-01-29T02:07:29.811Z,25.00
2023-01-29T02:10:05.791Z,20.20
2023-01-29T02:12:33.470Z,26.02
2023-01-29T02:15:00.854Z,22.65
2023-01-29T02:17:28.598Z,20.45
2023-01-29T02:20:18.646Z,18.48
2023-01-29T02:22:56.212Z,18.38
2023-01-29T02:26:09.825Z,15.65
2023-01-29T02:28:49.162Z,16.98
2023-01-29T02:31:28.484Z,17.13
2023-01-29T02:34:11.282Z,18.63
2023-01-29T02:36:56.282Z,15.07
2023-01-29T02:40:08.918Z,16.13
2023-01-29T02:42:53.259Z,14.73
2023-01-29T02:45:40.285Z,18.73
2023-01-29T02:48:17.365Z,19.08
2023-01-29T02:51:14.358Z,24.13
2023-01-29T02:53:53.707Z,23.85
2023-01-29T02:56:29.414Z,21.55
2023-01-29T02:59:11.206Z,20.35
2023-01-29T03:01:48.762Z,24.52
2023-01-29T03:04:22.950Z,20.63
2023-01-29T03:07:01.694Z,21.63
2023-01-29T03:09:41.982Z,22.08
2023-01-29T03:12:34.238Z,20.42
2023-01-29T03:15:12.269Z,22.73
2023-01-29T03:17:52.829Z,23.65
2023-01-29T03:20:26.726Z,18.88
2023-01-29T03:23:04.521Z,25.27
2023-01-29T03:25:53.245Z,26.42
2023-01-29T03:28:41.839Z,24.75
2023-01-29T03:31:33.195Z,28.05
2023-01-29T03:34:16.718Z,23.23
2023-01-29T03:37:04.059Z,27.23
2023-01-29T03:39:31.823Z,30.55
2023-01-29T03:42:27.279Z,27.58
2023-01-29T03:44:57.794Z,30.17
2023-01-29T03:48:19.744Z,28.80
2023-01-29T03:50:54.627Z,30.95
2023-01-29T03:53:37.220Z,27.10
2023-01-29T03:56:12.866Z,29.17
2023-01-29T03:58:47.365Z,29.25
2023-01-29T04:01:40.018Z,27.70
2023-01-29T04:04:34.573Z,26.50
2023-01-29T04:07:12.397Z,22.35
2023-01-29T04:09:51.634Z,26.10
2023-01-29T04:12:25.017Z,37.40
2023-01-29T04:14:54.511Z,37.53
2023-01-29T04:17:33.152Z,27.00
2023-01-29T04:20:07.654Z,26.65
2023-01-29T04:22:38.329Z,26.88
2023-01-29T04:25:16.222Z,26.90
2023-01-29T04:28:17.084Z,28.20
2023-01-29T04:30:55.387Z,22.50
2023-01-29T04:33:31.265Z,21.73
2023-01-29T04:36:07.257Z,19.58
2023-01-29T04:38:37.907Z,20.88
2023-01-29T04:41:24.634Z,23.25
2023-01-29T04:44:20.830Z,20.00
2023-01-29T04:47:15.724Z,18.65
2023-01-29T04:49:50.662Z,21.90
2023-01-29T04:52:20.659Z,16.05
2023-01-29T04:55:06.644Z,24.55
2023-01-29T04:57:59.770Z,19.13
2023-01-29T05:00:32.575Z,14.45
2023-01-29T05:03:00.896Z,16.45
2023-01-29T05:05:29.290Z,12.30
2023-01-29T05:07:58.512Z,11.65
2023-01-29T05:10:27.777Z,15.30
2023-01-29T05:13:00.779Z,16.52
2023-01-29T05:16:00.710Z,13.75
2023-01-29T05:18:29.552Z,15.95
2023-01-29T05:21:00.306Z,13.40
2023-01-29T05:23:27.512Z,17.17
2023-01-29T05:25:57.180Z,15.55
2023-01-29T05:28:24.484Z,10.90
2023-01-29T05:30:54.690Z,13.80
2023-01-29T05:33:31.091Z,11.75
2023-01-29T05:36:00.161Z,11.45
2023-01-29T05:38:27.340Z,15.80
2023-01-29T05:40:55.010Z,12.48
2023-01-29T05:43:24.478Z,16.17
2023-01-29T05:45:59.169Z,12.70
2023-01-29T05:48:32.256Z,13.48
2023-01-29T05:51:04.368Z,16.77
2023-01-29T05:53:32.430Z,16.70
2023-01-29T05:56:04.824Z,13.73
2023-01-29T05:58:33.285Z,12.52
2023-01-29T06:01:14.540Z,10.80
2023-01-29T06:03:41.762Z,13.35
2023-01-29T06:06:09.829Z,13.38
2023-01-29T06:08:37.597Z,12.40
2023-01-29T06:11:08.900Z,16.70
2023-01-29T06:13:36.520Z,13.10
2023-01-29T06:16:08.083Z,16.98
2023-01-29T06:18:36.893Z,15.98
2023-01-29T06:21:06.483Z,9.73
2023-01-29T06:23:34.218Z,15.18
2023-01-29T06:26:07.655Z,10.00
2023-01-29T06:28:35.124Z,16.55
2023-01-29T06:31:23.685Z,12.63
2023-01-29T06:33:51.741Z,12.10
2023-01-29T06:36:19.311Z,11.95
2023-01-29T06:38:47.419Z,10.98
2023-01-29T06:41:18.245Z,14.77
2023-01-29T06:43:46.207Z,11.55
2023-01-29T06:46:13.951Z,13.60
2023-01-29T06:48:41.277Z,11.75
2023-01-29T06:51:10.095Z,17.17
2023-01-29T06:53:38.498Z,10.10
2023-01-29T06:56:06.872Z,12.00
2023-01-29T06:58:39.853Z,14.55
2023-01-29T07:01:17.444Z,17.08
2023-01-29T07:03:52.648Z,21.65
2023-01-29T07:06:20.444Z,25.63
2023-01-29T07:08:47.654Z,37.47
2023-01-29T07:11:15.216Z,21.40
2023-01-29T07:13:42.366Z,10.95
2023-01-29T07:16:10.411Z,11.95
2023-01-29T07:18:37.676Z,25.40
2023-01-29T07:21:08.334Z,23.38
2023-01-29T07:23:35.724Z,16.27
2023-01-29T07:26:05.059Z,15.38
2023-01-29T07:28:32.422Z,20.00
2023-01-29T07:31:00.053Z,17.50
2023-01-29T07:33:27.534Z,21.42
2023-01-29T07:35:55.070Z,22.48
2023-01-29T07:38:22.268Z,19.70
2023-01-29T07:40:51.945Z,16.40
2023-01-29T07:43:19.102Z,22.70
2023-01-29T07:45:46.907Z,22.33
2023-01-29T07:48:14.318Z,24.27
2023-01-29T07:50:42.123Z,25.35
2023-01-29T07:53:15.593Z,23.40
2023-01-29T07:55:45.548Z,26.65
2023-01-29T07:58:13.079Z,22.45
2023-01-29T08:00:40.682Z,22.25
2023-01-29T08:03:12.168Z,14.85
2023-01-29T08:05:39.764Z,22.35
2023-01-29T08:08:07.966Z,15.82
2023-01-29T08:10:36.900Z,16.33
2023-01-29T08:13:05.460Z,19.15
2023-01-29T08:15:34.032Z,19.02
2023-01-29T08:18:02.760Z,23.02
2023-01-29T08:20:30.533Z,16.15
2023-01-29T08:23:02.404Z,13.77
2023-01-29T08:25:30.408Z,13.75
2023-01-29T08:27:58.866Z,14.52
2023-01-29T08:30:29.306Z,23.58
2023-01-29T08:32:56.888Z,16.55
2023-01-29T08:35:25.368Z,19.80
2023-01-29T08:37:58.506Z,23.08
2023-01-29T08:40:27.669Z,18.52
2023-01-29T08:43:02.004Z,15.65
2023-01-29T08:45:32.056Z,11.68
2023-01-29T08:47:59.402Z,16.38
2023-01-29T08:50:27.292Z,23.10
2023-01-29T08:52:59.283Z,16.00
2023-01-29T08:55:27.705Z,7.60
2023-01-29T08:57:57.470Z,14.68
2023-01-29T09:00:25.210Z,13.48
2023-01-29T09:02:52.602Z,11.73
2023-01-29T09:05:20.619Z,13.57
2023-01-29T09:07:48.199Z,12.60
2023-01-29T09:10:16.460Z,8.55
2023-01-29T09:12:43.704Z,11.20
2023-01-29T09:15:11.802Z,9.40
2023-01-29T09:17:39.195Z,15.25
2023-01-29T09:20:07.875Z,15.35
2023-01-29T09:22:35.320Z,10.45
2023-01-29T09:25:03.447Z,12.13
2023-01-29T09:27:30.935Z,14.77
2023-01-29T09:29:58.467Z,11.30
2023-01-29T09:32:52.151Z,8.98
2023-01-29T09:35:13.552Z,8.40
2023-01-29T09:37:40.919Z,9.93
2023-01-29T09:40:21.397Z,11.25
2023-01-29T09:43:01.853Z,4.40
2023-01-29T09:45:31.749Z,11.52
2023-01-29T09:48:06.090Z,5.35
2023-01-29T09:50:41.265Z,9.30
2023-01-29T09:53:23.227Z,9.63
2023-01-29T09:55:59.910Z,11.57
2023-01-29T09:58:36.072Z,11.30
2023-01-29T10:01:12.345Z,12.82
2023-01-29T10:04:04.244Z,14.05
2023-01-29T10:06:59.430Z,11.65
2023-01-29T10:10:04.130Z,6.85
2023-01-29T10:12:48.444Z,8.68
2023-01-29T10:15:21.926Z,10.40
2023-01-29T10:17:52.178Z,8.77
2023-01-29T10:20:39.050Z,12.65
2023-01-29T10:23:26.725Z,10.20
2023-01-29T10:25:55.350Z,6.45
2023-01-29T10:28:29.671Z,10.23
2023-01-29T10:31:07.488Z,7.07
2023-01-29T10:33:49.540Z,10.18
2023-01-29T10:36:34.569Z,8.73
2023-01-29T10:39:02.452Z,9.88
2023-01-29T10:41:59.234Z,12.98
2023-01-29T10:44:30.856Z,12.32
2023-01-29T10:47:16.162Z,7.20
2023-01-29T10:49:46.979Z,8.13
2023-01-29T10:52:24.061Z,6.25
2023-01-29T10:55:03.622Z,7.05
2023-01-29T10:58:09.631Z,15.65
2023-01-29T11:00:41.945Z,9.02
2023-01-29T11:03:28.340Z,14.93
2023-01-29T11:06:15.025Z,10.35
2023-01-29T11:08:57.401Z,10.23
2023-01-29T11:11:34.718Z,11.50
2023-01-29T11:14:07.553Z,13.45
2023-01-29T11:16:43.936Z,15.20
2023-01-29T11:19:12.228Z,14.63
2023-01-29T11:22:01.418Z,13.35
2023-01-29T11:24:28.902Z,10.52
2023-01-29T11:27:00.125Z,11.13
2023-01-29T11:29:28.024Z,12.18
2023-01-29T11:31:58.237Z,14.57
2023-01-29T11:34:31.251Z,8.73
2023-01-29T11:37:15.784Z,13.52
2023-01-29T11:39:47.500Z,26.75
2023-01-29T11:42:24.457Z,31.50
2023-01-29T11:44:51.820Z,16.25
2023-01-29T11:47:27.119Z,13.93
2023-01-29T11:50:04.916Z,17.92
2023-01-29T11:52:38.522Z,11.35
2023-01-29T11:55:13.816Z,15.13
2023-01-29T11:57:43.895Z,24.48
2023-01-29T12:00:23.238Z,20.98
2023-01-29T12:03:11.649Z,16.80
2023-01-29T12:05:41.242Z,15.05
2023-01-29T12:08:18.281Z,34.10
2023-01-29T12:10:45.945Z,32.97
2023-01-29T12:13:22.511Z,19.15
2023-01-29T12:18:34.545Z,20.38
2023-01-29T12:21:16.487Z,21.40
2023-01-29T12:24:22.453Z,22.65
2023-01-29T12:26:59.192Z,15.77
2023-01-29T12:30:05.165Z,12.50
2023-01-29T12:32:41.394Z,13.18
2023-01-29T12:35:23.353Z,14.50
2023-01-29T12:38:18.594Z,15.15
2023-01-29T12:40:59.084Z,14.77
2023-01-29T12:43:36.014Z,17.48
2023-01-29T12:46:09.021Z,14.85
2023-01-29T12:48:42.491Z,30.33
2023-01-29T12:51:16.566Z,21.33
2023-01-29T12:53:55.306Z,22.02
2023-01-29T12:56:31.601Z,18.30
2023-01-29T12:59:02.733Z,23.23
2023-01-29T13:01:47.128Z,16.25
2023-01-29T13:04:36.409Z,22.38
2023-01-29T13:07:42.154Z,21.73
2023-01-29T13:10:18.304Z,19.35
2023-01-29T13:12:58.796Z,18.52
2023-01-29T13:15:38.624Z,22.48
2023-01-29T13:18:23.062Z,22.13
2023-01-29T13:20:52.126Z,27.73
2023-01-29T13:23:25.429Z,38.72
2023-01-29T13:25:54.249Z,35.58
2023-01-29T13:28:25.634Z,32.75
2023-01-29T13:31:33.420Z,19.85
2023-01-29T13:34:19.701Z,20.40
2023-01-29T13:36:56.286Z,26.85
2023-01-29T13:39:46.646Z,25.40
2023-01-29T13:42:21.000Z,20.20
2023-01-29T13:44:57.724Z,20.08
2023-01-29T13:47:33.827Z,16.98
2023-01-29T13:50:18.411Z,18.48
2023-01-29T13:52:58.193Z,16.23
2023-01-29T13:55:31.674Z,19.75
2023-01-29T13:58:00.847Z,24.13
2023-01-29T14:00:34.477Z,23.80
2023-01-29T14:03:01.705Z,18.10
2023-01-29T14:05:30.594Z,18.38
2023-01-29T14:08:03.613Z,21.77
2023-01-29T14:10:33.996Z,20.13
2023-01-29T14:13:20.560Z,24.17
2023-01-29T14:15:58.741Z,26.15
2023-01-29T14:18:28.793Z,24.77
2023-01-29T14:21:20.145Z,18.27
2023-01-29T14:23:52.939Z,22.85
2023-01-29T14:26:26.542Z,20.77
2023-01-29T14:29:34.683Z,18.20
2023-01-29T14:32:08.241Z,41.13
2023-01-29T14:34:42.893Z,41.55
2023-01-29T14:37:16.537Z,39.35
2023-01-29T14:39:47.764Z,48.80
2023-01-29T14:42:24.434Z,107.60
2023-01-29T14:44:54.809Z,93.00
2023-01-29T14:47:45.680Z,87.18
2023-01-29T14:50:34.888Z,44.95
2023-01-29T14:53:11.144Z,41.78
2023-01-29T14:55:43.195Z,50.05
2023-01-29T14:58:23.132Z,41.00
2023-01-29T15:00:57.559Z,45.45
2023-01-29T15:03:39.344Z,36.10
2023-01-29T15:06:08.875Z,45.35
2023-01-29T15:08:44.041Z,44.83
2023-01-29T15:11:34.257Z,64.70
2023-01-29T15:14:41.913Z,69.63
2023-01-29T15:17:18.795Z,75.05
2023-01-29T15:19:48.618Z,77.50
2023-01-29T15:22:18.439Z,88.55
2023-01-29T15:24:48.428Z,80.07
2023-01-29T15:27:20.791Z,87.97
2023-01-29T15:29:55.902Z,99.15
2023-01-29T15:32:31.618Z,596.25
2023-01-29T15:35:00.544Z,431.75
2023-01-29T15:37:31.239Z,96.20
2023-01-29T15:40:01.066Z,109.32
2023-01-29T15:42:30.026Z,86.75
2023-01-29T15:44:57.622Z,73.80
2023-01-29T15:47:32.272Z,79.60
2023-01-29T15:50:00.645Z,68.50
2023-01-29T15:52:33.188Z,67.43
2023-01-29T15:55:05.634Z,66.13
2023-01-29T15:57:40.815Z,68.80
2023-01-29T16:00:22.982Z,60.28
2023-01-29T16:02:50.511Z,100.20
2023-01-29T16:05:22.265Z,721.53
2023-01-29T16:07:51.584Z,619.90
2023-01-29T16:10:25.509Z,363.48
2023-01-29T16:12:53.502Z,181.25
2023-01-29T16:15:33.764Z,213.82
2023-01-29T16:18:03.645Z,121.82
2023-01-29T16:20:38.027Z,106.40
2023-01-29T16:23:06.960Z,112.28
2023-01-29T16:25:38.560Z,100.82
2023-01-29T16:28:07.584Z,94.47
2023-01-29T16:30:35.350Z,85.43
2023-01-29T16:33:07.637Z,91.72
2023-01-29T16:35:36.300Z,89.07
2023-01-29T16:38:07.266Z,93.60
2023-01-29T16:40:38.323Z,126.53
2023-01-29T16:43:17.753Z,138.90
2023-01-29T16:46:04.550Z,184.82
2023-01-29T16:51:14.480Z,193.15
2023-01-29T16:53:53.788Z,238.63
2023-01-29T16:56:25.845Z,234.43
2023-01-29T16:58:54.738Z,270.52
2023-01-29T17:01:26.598Z,281.80
2023-01-29T17:04:00.854Z,201.95
2023-01-29T17:06:31.542Z,104.53
2023-01-29T17:08:59.046Z,93.30
2023-01-29T17:11:34.523Z,85.63
2023-01-29T17:14:02.178Z,95.93
2023-01-29T17:16:32.642Z,123.47
2023-01-29T17:19:00.905Z,95.55
2023-01-29T17:21:30.273Z,123.28
2023-01-29T17:23:57.566Z,166.70
2023-01-29T17:26:25.286Z,181.75
2023-01-29T17:28:54.454Z,240.02
2023-01-29T17:31:22.507Z,305.30
2023-01-29T17:33:49.727Z,460.98
2023-01-29T17:36:18.303Z,552.08
2023-01-29T17:38:45.977Z,273.80
2023-01-29T17:41:19.729Z,259.23
2023-01-29T17:43:46.954Z,306.92
2023-01-29T17:46:16.424Z,249.20
2023-01-29T17:48:44.411Z,223.35
2023-01-29T17:51:14.860Z,220.02
2023-01-29T17:53:46.722Z,217.32
2023-01-29T17:56:30.395Z,295.55
2023-01-29T17:58:57.700Z,545.55
2023-01-29T18:01:25.185Z,333.10
2023-01-29T18:03:52.543Z,328.38
2023-01-29T18:06:28.564Z,407.48
2023-01-29T18:08:56.690Z,252.88
2023-01-29T18:11:24.916Z,241.75
2023-01-29T18:13:52.297Z,399.65
2023-01-29T18:16:22.123Z,525.78
2023-01-29T18:18:50.893Z,290.50
2023-01-29T18:21:18.804Z,330.65
2023-01-29T18:23:46.053Z,291.73
2023-01-29T18:26:16.687Z,282.63
2023-01-29T18:28:44.122Z,302.25
2023-01-29T18:31:13.981Z,277.83
2023-01-29T18:33:41.587Z,268.00
2023-01-29T18:36:09.385Z,277.58
2023-01-29T18:38:36.643Z,259.02
2023-01-29T18:41:06.516Z,289.20
2023-01-29T18:43:33.744Z,272.30
2023-01-29T18:46:01.271Z,248.18
2023-01-29T18:48:29.550Z,238.90
2023-01-29T18:50:57.205Z,228.43
2023-01-29T18:53:24.486Z,237.00
2023-01-29T18:56:00.053Z,242.73
2023-01-29T18:58:35.143Z,259.25
2023-01-29T19:03:38.004Z,324.88
2023-01-29T19:06:08.147Z,345.27
2023-01-29T19:08:35.507Z,329.92
2023-01-29T19:11:05.829Z,333.83
2023-01-29T19:13:33.247Z,454.95
2023-01-29T19:16:01.107Z,307.80
2023-01-29T19:18:28.908Z,457.42
2023-01-29T19:20:56.477Z,317.20
2023-01-29T19:23:23.773Z,396.65
2023-01-29T19:25:52.081Z,297.77
2023-01-29T19:28:19.413Z,292.30
2023-01-29T19:30:46.953Z,320.88
2023-01-29T19:33:14.653Z,340.83
2023-01-29T19:35:45.585Z,371.42
2023-01-29T19:38:18.596Z,416.48
2023-01-29T19:40:46.148Z,425.70
2023-01-29T19:43:20.315Z,365.80
2023-01-29T19:45:53.835Z,413.77
2023-01-29T19:48:22.006Z,454.83
2023-01-29T19:51:01.263Z,404.23
2023-01-29T19:53:29.344Z,374.85
2023-01-29T19:56:05.419Z,349.20
2023-01-29T19:58:33.375Z,333.45
2023-01-29T20:01:19.272Z,359.13
2023-01-29T20:03:48.988Z,384.58
2023-01-29T20:06:19.905Z,391.27
2023-01-29T20:08:49.729Z,302.48
2023-01-29T20:11:20.187Z,291.55
2023-01-29T20:13:49.878Z,206.93
2023-01-29T20:16:18.691Z,235.23
2023-01-29T20:18:46.392Z,261.70
2023-01-29T20:21:16.120Z,241.57
2023-01-29T20:23:45.691Z,259.95
2023-01-29T20:26:15.952Z,274.00
2023-01-29T20:28:45.803Z,279.35
2023-01-29T20:31:13.480Z,260.63
2023-01-29T20:33:40.791Z,237.75
2023-01-29T20:36:10.781Z,238.45
2023-01-29T20:38:38.318Z,237.73
2023-01-29T20:41:16.927Z,268.65
2023-01-29T20:43:45.069Z,352.67
2023-01-29T20:46:13.784Z,401.98
2023-01-29T20:48:42.303Z,401.40
2023-01-29T20:51:15.859Z,389.23
2023-01-29T20:53:45.805Z,387.58
2023-01-29T20:56:15.841Z,403.63
2023-01-29T20:58:43.189Z,410.05
2023-01-29T21:01:16.902Z,390.40
2023-01-29T21:03:44.366Z,375.92
2023-01-29T21:06:12.577Z,354.60
2023-01-29T21:08:40.694Z,330.23
2023-01-29T21:11:09.866Z,339.65
2023-01-29T21:13:37.751Z,331.88
2023-01-29T21:16:05.547Z,304.13
2023-01-29T21:18:32.926Z,332.88
2023-01-29T21:21:00.438Z,406.92
2023-01-29T21:23:27.677Z,367.90
2023-01-29T21:26:02.381Z,329.27
2023-01-29T21:28:29.695Z,272.33
2023-01-29T21:31:08.435Z,259.63
2023-01-29T21:33:36.136Z,262.17
2023-01-29T21:36:04.323Z,325.45
2023-01-29T21:38:31.799Z,242.38
2023-01-29T21:41:04.727Z,185.80
2023-01-29T21:43:32.074Z,222.45
2023-01-29T21:46:11.727Z,242.75
2023-01-29T21:48:40.445Z,336.33
2023-01-29T21:51:08.482Z,343.15
2023-01-29T21:53:36.857Z,219.30
2023-01-29T21:56:05.937Z,232.13
2023-01-29T21:58:33.781Z,159.95
2023-01-29T22:01:35.148Z,182.63
2023-01-29T22:03:48.498Z,151.90
2023-01-29T22:06:16.100Z,171.05
2023-01-29T22:08:43.387Z,160.45
2023-01-29T22:11:11.535Z,183.07
2023-01-29T22:13:39.026Z,209.95
2023-01-29T22:16:07.447Z,181.35
2023-01-29T22:18:35.209Z,199.82
2023-01-29T22:21:03.171Z,224.15
2023-01-29T22:23:31.604Z,223.90
2023-01-29T22:26:04.200Z,184.13
2023-01-29T22:28:31.716Z,147.32
2023-01-29T22:31:03.702Z,149.82
2023-01-29T22:33:31.451Z,164.70
2023-01-29T22:35:59.309Z,148.25
2023-01-29T22:38:26.693Z,159.30
2023-01-29T22:40:55.690Z,180.73
2023-01-29T22:43:23.489Z,196.43
2023-01-29T22:45:50.978Z,193.43
2023-01-29T22:48:18.238Z,185.40
2023-01-29T22:50:53.980Z,172.82
2023-01-29T22:53:21.195Z,157.55
2023-01-29T22:55:55.898Z,190.93
2023-01-29T22:58:23.155Z,212.45
2023-01-29T23:00:51.551Z,176.90
2023-01-29T23:03:18.712Z,169.02
2023-01-29T23:05:46.166Z,159.45
2023-01-29T23:08:13.361Z,128.77
2023-01-29T23:10:40.844Z,116.75
2023-01-29T23:13:08.135Z,114.80
2023-01-29T23:15:35.619Z,109.95
2023-01-29T23:18:03.841Z,122.53
2023-01-29T23:20:31.732Z,108.53
2023-01-29T23:22:59.000Z,102.32
2023-01-29T23:25:46.929Z,111.68
2023-01-29T23:28:14.644Z,93.80
2023-01-29T23:30:42.157Z,73.07
2023-01-29T23:33:12.088Z,82.50
2023-01-29T23:35:40.084Z,73.75
2023-01-29T23:38:07.885Z,85.90
2023-01-29T23:40:35.683Z,74.28
2023-01-29T23:43:02.805Z,81.28
2023-01-29T23:45:30.459Z,79.43
2023-01-29T23:47:57.624Z,83.80
2023-01-29T23:50:25.259Z,82.32
2023-01-29T23:52:52.479Z,76.53
2023-01-29T23:55:20.012Z,84.65
2023-01-29T23:57:47.259Z,69.18
